sensor_id;sensor_type;location;lat;lon;timestamp;pressure;altitude;pressure_sealevel;temperature
35582;BMP180;21687;48.900;9.188;2024-02-16T00:01:39;98273.00;;;9.30
35582;BMP180;21687;48.900;9.188;2024-02-16T00:04:06;98281.00;;;9.40
35582;BMP180;21687;48.900;9.188;2024-02-16T00:06:33;98270.00;;;9.40
35582;BMP180;21687;48.900;9.188;2024-02-16T00:09:00;98278.00;;;9.50
35582;BMP180;21687;48.900;9.188;2024-02-16T00:11:27;98281.00;;;9.50
35582;BMP180;21687;48.900;9.188;2024-02-16T00:13:54;98272.00;;;9.60
35582;BMP180;21687;48.900;9.188;2024-02-16T00:16:21;98272.00;;;9.60
35582;BMP180;21687;48.900;9.188;2024-02-16T00:18:47;98271.00;;;9.60
35582;BMP180;21687;48.900;9.188;2024-02-16T00:21:13;98278.00;;;9.70
35582;BMP180;21687;48.900;9.188;2024-02-16T00:23:39;98270.00;;;9.70
35582;BMP180;21687;48.900;9.188;2024-02-16T00:26:06;98274.00;;;9.70
35582;BMP180;21687;48.900;9.188;2024-02-16T00:28:33;98274.00;;;9.70
35582;BMP180;21687;48.900;9.188;2024-02-16T00:30:59;98258.00;;;9.80
35582;BMP180;21687;48.900;9.188;2024-02-16T00:33:26;98260.00;;;9.80
35582;BMP180;21687;48.900;9.188;2024-02-16T00:35:54;98255.00;;;9.90
35582;BMP180;21687;48.900;9.188;2024-02-16T00:38:20;98251.00;;;9.90
35582;BMP180;21687;48.900;9.188;2024-02-16T00:40:46;98254.00;;;9.90
35582;BMP180;21687;48.900;9.188;2024-02-16T00:43:13;98257.00;;;9.90
35582;BMP180;21687;48.900;9.188;2024-02-16T00:45:40;98257.00;;;9.90
35582;BMP180;21687;48.900;9.188;2024-02-16T00:48:10;98254.00;;;10.00
35582;BMP180;21687;48.900;9.188;2024-02-16T00:50:37;98257.00;;;10.00
35582;BMP180;21687;48.900;9.188;2024-02-16T00:53:03;98250.00;;;9.90
35582;BMP180;21687;48.900;9.188;2024-02-16T00:55:30;98251.00;;;9.90
35582;BMP180;21687;48.900;9.188;2024-02-16T00:57:56;98243.00;;;9.80
35582;BMP180;21687;48.900;9.188;2024-02-16T01:00:23;98246.00;;;9.80
35582;BMP180;21687;48.900;9.188;2024-02-16T01:02:50;98253.00;;;9.70
35582;BMP180;21687;48.900;9.188;2024-02-16T01:05:17;98258.00;;;9.70
35582;BMP180;21687;48.900;9.188;2024-02-16T01:07:44;98259.00;;;9.70
35582;BMP180;21687;48.900;9.188;2024-02-16T01:10:11;98253.00;;;9.70
35582;BMP180;21687;48.900;9.188;2024-02-16T01:12:38;98255.00;;;9.70
35582;BMP180;21687;48.900;9.188;2024-02-16T01:15:05;98257.00;;;9.60
35582;BMP180;21687;48.900;9.188;2024-02-16T01:17:32;98247.00;;;9.60
35582;BMP180;21687;48.900;9.188;2024-02-16T01:19:59;98266.00;;;9.60
35582;BMP180;21687;48.900;9.188;2024-02-16T01:22:26;98257.00;;;9.60
35582;BMP180;21687;48.900;9.188;2024-02-16T01:24:55;98254.00;;;9.70
35582;BMP180;21687;48.900;9.188;2024-02-16T01:27:21;98260.00;;;9.70
35582;BMP180;21687;48.900;9.188;2024-02-16T01:29:47;98258.00;;;9.70
35582;BMP180;21687;48.900;9.188;2024-02-16T01:32:14;98256.00;;;9.60
35582;BMP180;21687;48.900;9.188;2024-02-16T01:34:40;98260.00;;;9.60
35582;BMP180;21687;48.900;9.188;2024-02-16T01:37:07;98262.00;;;9.60
35582;BMP180;21687;48.900;9.188;2024-02-16T01:39:33;98253.00;;;9.60
35582;BMP180;21687;48.900;9.188;2024-02-16T01:42:00;98244.00;;;9.60
35582;BMP180;21687;48.900;9.188;2024-02-16T01:44:26;98253.00;;;9.60
35582;BMP180;21687;48.900;9.188;2024-02-16T01:46:52;98251.00;;;9.60
35582;BMP180;21687;48.900;9.188;2024-02-16T01:49:18;98248.00;;;9.60
35582;BMP180;21687;48.900;9.188;2024-02-16T01:51:45;98251.00;;;9.70
35582;BMP180;21687;48.900;9.188;2024-02-16T01:54:12;98255.00;;;9.70
35582;BMP180;21687;48.900;9.188;2024-02-16T01:56:39;98252.00;;;9.80
35582;BMP180;21687;48.900;9.188;2024-02-16T01:59:06;98247.00;;;9.80
35582;BMP180;21687;48.900;9.188;2024-02-16T02:01:33;98249.00;;;9.80
35582;BMP180;21687;48.900;9.188;2024-02-16T02:03:59;98249.00;;;9.80
35582;BMP180;21687;48.900;9.188;2024-02-16T02:06:26;98242.00;;;9.80
35582;BMP180;21687;48.900;9.188;2024-02-16T02:08:53;98244.00;;;9.80
35582;BMP180;21687;48.900;9.188;2024-02-16T02:11:19;98246.00;;;9.80
35582;BMP180;21687;48.900;9.188;2024-02-16T02:13:45;98231.00;;;9.70
35582;BMP180;21687;48.900;9.188;2024-02-16T02:16:12;98235.00;;;9.70
35582;BMP180;21687;48.900;9.188;2024-02-16T02:18:39;98231.00;;;9.70
35582;BMP180;21687;48.900;9.188;2024-02-16T02:21:07;98224.00;;;9.70
35582;BMP180;21687;48.900;9.188;2024-02-16T02:23:33;98220.00;;;9.70
35582;BMP180;21687;48.900;9.188;2024-02-16T02:26:00;98226.00;;;9.60
35582;BMP180;21687;48.900;9.188;2024-02-16T02:28:26;98230.00;;;9.70
35582;BMP180;21687;48.900;9.188;2024-02-16T02:30:53;98225.00;;;9.80
35582;BMP180;21687;48.900;9.188;2024-02-16T02:33:19;98223.00;;;9.80
35582;BMP180;21687;48.900;9.188;2024-02-16T02:35:47;98220.00;;;9.80
35582;BMP180;21687;48.900;9.188;2024-02-16T02:38:13;98222.00;;;9.80
35582;BMP180;21687;48.900;9.188;2024-02-16T02:40:40;98214.00;;;9.80
35582;BMP180;21687;48.900;9.188;2024-02-16T02:43:06;98213.00;;;9.80
35582;BMP180;21687;48.900;9.188;2024-02-16T02:45:33;98218.00;;;9.80
35582;BMP180;21687;48.900;9.188;2024-02-16T02:47:59;98209.00;;;9.80
35582;BMP180;21687;48.900;9.188;2024-02-16T02:50:26;98208.00;;;9.80
35582;BMP180;21687;48.900;9.188;2024-02-16T02:52:53;98203.00;;;9.70
35582;BMP180;21687;48.900;9.188;2024-02-16T02:55:19;98200.00;;;9.70
35582;BMP180;21687;48.900;9.188;2024-02-16T02:57:45;98197.00;;;9.70
35582;BMP180;21687;48.900;9.188;2024-02-16T03:00:12;98202.00;;;9.70
35582;BMP180;21687;48.900;9.188;2024-02-16T03:02:38;98202.00;;;9.70
35582;BMP180;21687;48.900;9.188;2024-02-16T03:05:06;98204.00;;;9.70
35582;BMP180;21687;48.900;9.188;2024-02-16T03:07:36;98199.00;;;9.70
35582;BMP180;21687;48.900;9.188;2024-02-16T03:10:04;98196.00;;;9.70
35582;BMP180;21687;48.900;9.188;2024-02-16T03:12:33;98189.00;;;9.70
35582;BMP180;21687;48.900;9.188;2024-02-16T03:14:59;98204.00;;;9.60
35582;BMP180;21687;48.900;9.188;2024-02-16T03:17:26;98198.00;;;9.60
35582;BMP180;21687;48.900;9.188;2024-02-16T03:19:52;98200.00;;;9.60
35582;BMP180;21687;48.900;9.188;2024-02-16T03:22:18;98190.00;;;9.60
35582;BMP180;21687;48.900;9.188;2024-02-16T03:24:44;98193.00;;;9.60
35582;BMP180;21687;48.900;9.188;2024-02-16T03:27:11;98197.00;;;9.60
35582;BMP180;21687;48.900;9.188;2024-02-16T03:29:38;98185.00;;;9.60
35582;BMP180;21687;48.900;9.188;2024-02-16T03:32:04;98196.00;;;9.60
35582;BMP180;21687;48.900;9.188;2024-02-16T03:34:31;98195.00;;;9.60
35582;BMP180;21687;48.900;9.188;2024-02-16T03:36:57;98201.00;;;9.50
35582;BMP180;21687;48.900;9.188;2024-02-16T03:39:25;98206.00;;;9.50
35582;BMP180;21687;48.900;9.188;2024-02-16T03:41:51;98213.00;;;9.50
35582;BMP180;21687;48.900;9.188;2024-02-16T03:44:17;98218.00;;;9.50
35582;BMP180;21687;48.900;9.188;2024-02-16T03:46:43;98215.00;;;9.50
35582;BMP180;21687;48.900;9.188;2024-02-16T03:49:10;98219.00;;;9.50
35582;BMP180;21687;48.900;9.188;2024-02-16T03:51:36;98211.00;;;9.50
35582;BMP180;21687;48.900;9.188;2024-02-16T03:54:03;98223.00;;;9.50
35582;BMP180;21687;48.900;9.188;2024-02-16T03:56:30;98213.00;;;9.50
35582;BMP180;21687;48.900;9.188;2024-02-16T03:58:57;98213.00;;;9.40
35582;BMP180;21687;48.900;9.188;2024-02-16T04:01:23;98208.00;;;9.30
35582;BMP180;21687;48.900;9.188;2024-02-16T04:03:50;98205.00;;;9.20
35582;BMP180;21687;48.900;9.188;2024-02-16T04:06:18;98216.00;;;9.20
35582;BMP180;21687;48.900;9.188;2024-02-16T04:08:44;98216.00;;;9.10
35582;BMP180;21687;48.900;9.188;2024-02-16T04:11:14;98208.00;;;9.00
35582;BMP180;21687;48.900;9.188;2024-02-16T04:13:41;98208.00;;;9.10
35582;BMP180;21687;48.900;9.188;2024-02-16T04:16:07;98213.00;;;9.10
35582;BMP180;21687;48.900;9.188;2024-02-16T04:18:34;98205.00;;;9.10
35582;BMP180;21687;48.900;9.188;2024-02-16T04:21:00;98203.00;;;9.10
35582;BMP180;21687;48.900;9.188;2024-02-16T04:23:27;98210.00;;;9.20
35582;BMP180;21687;48.900;9.188;2024-02-16T04:25:55;98213.00;;;9.30
35582;BMP180;21687;48.900;9.188;2024-02-16T04:28:22;98217.00;;;9.30
35582;BMP180;21687;48.900;9.188;2024-02-16T04:30:48;98219.00;;;9.30
35582;BMP180;21687;48.900;9.188;2024-02-16T04:33:15;98226.00;;;9.20
35582;BMP180;21687;48.900;9.188;2024-02-16T04:35:41;98223.00;;;9.30
35582;BMP180;21687;48.900;9.188;2024-02-16T04:38:07;98218.00;;;9.30
35582;BMP180;21687;48.900;9.188;2024-02-16T04:40:36;98225.00;;;9.40
35582;BMP180;21687;48.900;9.188;2024-02-16T04:43:03;98223.00;;;9.50
35582;BMP180;21687;48.900;9.188;2024-02-16T04:45:30;98232.00;;;9.50
35582;BMP180;21687;48.900;9.188;2024-02-16T04:47:56;98236.00;;;9.50
35582;BMP180;21687;48.900;9.188;2024-02-16T04:50:23;98239.00;;;9.50
35582;BMP180;21687;48.900;9.188;2024-02-16T04:52:49;98232.00;;;9.50
35582;BMP180;21687;48.900;9.188;2024-02-16T04:55:17;98231.00;;;9.60
35582;BMP180;21687;48.900;9.188;2024-02-16T04:57:43;98226.00;;;9.60
35582;BMP180;21687;48.900;9.188;2024-02-16T05:00:10;98235.00;;;9.60
35582;BMP180;21687;48.900;9.188;2024-02-16T05:02:36;98236.00;;;9.60
35582;BMP180;21687;48.900;9.188;2024-02-16T05:05:03;98233.00;;;9.70
35582;BMP180;21687;48.900;9.188;2024-02-16T05:07:29;98240.00;;;9.60
35582;BMP180;21687;48.900;9.188;2024-02-16T05:09:57;98238.00;;;9.60
35582;BMP180;21687;48.900;9.188;2024-02-16T05:12:24;98236.00;;;9.60
35582;BMP180;21687;48.900;9.188;2024-02-16T05:14:52;98247.00;;;9.50
35582;BMP180;21687;48.900;9.188;2024-02-16T05:17:19;98250.00;;;9.50
35582;BMP180;21687;48.900;9.188;2024-02-16T05:19:48;98239.00;;;9.50
35582;BMP180;21687;48.900;9.188;2024-02-16T05:22:15;98238.00;;;9.50
35582;BMP180;21687;48.900;9.188;2024-02-16T05:24:44;98244.00;;;9.50
35582;BMP180;21687;48.900;9.188;2024-02-16T05:27:11;98244.00;;;9.50
35582;BMP180;21687;48.900;9.188;2024-02-16T05:29:37;98233.00;;;9.40
35582;BMP180;21687;48.900;9.188;2024-02-16T05:32:03;98242.00;;;9.40
35582;BMP180;21687;48.900;9.188;2024-02-16T05:34:30;98242.00;;;9.40
35582;BMP180;21687;48.900;9.188;2024-02-16T05:37:06;98250.00;;;9.40
35582;BMP180;21687;48.900;9.188;2024-02-16T05:39:35;98253.00;;;9.30
35582;BMP180;21687;48.900;9.188;2024-02-16T05:42:09;98256.00;;;9.20
35582;BMP180;21687;48.900;9.188;2024-02-16T05:44:35;98256.00;;;9.10
35582;BMP180;21687;48.900;9.188;2024-02-16T05:47:03;98257.00;;;9.10
35582;BMP180;21687;48.900;9.188;2024-02-16T05:49:29;98248.00;;;9.10
35582;BMP180;21687;48.900;9.188;2024-02-16T05:51:56;98254.00;;;9.10
35582;BMP180;21687;48.900;9.188;2024-02-16T05:54:41;98252.00;;;9.10
35582;BMP180;21687;48.900;9.188;2024-02-16T05:57:07;98260.00;;;9.10
35582;BMP180;21687;48.900;9.188;2024-02-16T05:59:35;98272.00;;;9.00
35582;BMP180;21687;48.900;9.188;2024-02-16T06:02:01;98270.00;;;8.80
35582;BMP180;21687;48.900;9.188;2024-02-16T06:04:27;98267.00;;;8.80
35582;BMP180;21687;48.900;9.188;2024-02-16T06:06:54;98270.00;;;8.70
35582;BMP180;21687;48.900;9.188;2024-02-16T06:09:20;98265.00;;;8.80
35582;BMP180;21687;48.900;9.188;2024-02-16T06:11:47;98272.00;;;8.80
35582;BMP180;21687;48.900;9.188;2024-02-16T06:14:14;98272.00;;;8.70
35582;BMP180;21687;48.900;9.188;2024-02-16T06:16:41;98281.00;;;8.60
35582;BMP180;21687;48.900;9.188;2024-02-16T06:19:12;98279.00;;;8.70
35582;BMP180;21687;48.900;9.188;2024-02-16T06:21:38;98287.00;;;8.80
35582;BMP180;21687;48.900;9.188;2024-02-16T06:24:05;98288.00;;;8.80
35582;BMP180;21687;48.900;9.188;2024-02-16T06:26:31;98300.00;;;8.80
35582;BMP180;21687;48.900;9.188;2024-02-16T06:28:57;98304.00;;;8.90
35582;BMP180;21687;48.900;9.188;2024-02-16T06:31:24;98302.00;;;8.90
35582;BMP180;21687;48.900;9.188;2024-02-16T06:33:50;98299.00;;;9.00
35582;BMP180;21687;48.900;9.188;2024-02-16T06:36:18;98290.00;;;8.90
35582;BMP180;21687;48.900;9.188;2024-02-16T06:38:44;98296.00;;;9.00
35582;BMP180;21687;48.900;9.188;2024-02-16T06:41:12;98304.00;;;9.00
35582;BMP180;21687;48.900;9.188;2024-02-16T06:43:38;98308.00;;;8.90
35582;BMP180;21687;48.900;9.188;2024-02-16T06:46:04;98299.00;;;9.00
35582;BMP180;21687;48.900;9.188;2024-02-16T06:48:31;98301.00;;;9.00
35582;BMP180;21687;48.900;9.188;2024-02-16T06:50:57;98295.00;;;9.00
35582;BMP180;21687;48.900;9.188;2024-02-16T06:53:23;98295.00;;;9.10
35582;BMP180;21687;48.900;9.188;2024-02-16T06:55:49;98306.00;;;9.10
35582;BMP180;21687;48.900;9.188;2024-02-16T06:58:17;98293.00;;;9.20
35582;BMP180;21687;48.900;9.188;2024-02-16T07:00:43;98305.00;;;9.20
35582;BMP180;21687;48.900;9.188;2024-02-16T07:03:10;98316.00;;;9.20
35582;BMP180;21687;48.900;9.188;2024-02-16T07:05:36;98320.00;;;9.20
35582;BMP180;21687;48.900;9.188;2024-02-16T07:08:03;98327.00;;;9.30
35582;BMP180;21687;48.900;9.188;2024-02-16T07:10:32;98322.00;;;9.30
35582;BMP180;21687;48.900;9.188;2024-02-16T07:12:59;98333.00;;;9.40
35582;BMP180;21687;48.900;9.188;2024-02-16T07:15:26;98336.00;;;9.40
35582;BMP180;21687;48.900;9.188;2024-02-16T07:17:54;98339.00;;;9.60
35582;BMP180;21687;48.900;9.188;2024-02-16T07:20:20;98340.00;;;9.60
35582;BMP180;21687;48.900;9.188;2024-02-16T07:22:47;98348.00;;;9.60
35582;BMP180;21687;48.900;9.188;2024-02-16T07:25:13;98332.00;;;9.70
35582;BMP180;21687;48.900;9.188;2024-02-16T07:27:40;98349.00;;;9.70
35582;BMP180;21687;48.900;9.188;2024-02-16T07:30:07;98340.00;;;9.80
35582;BMP180;21687;48.900;9.188;2024-02-16T07:32:36;98352.00;;;9.90
35582;BMP180;21687;48.900;9.188;2024-02-16T07:35:03;98352.00;;;9.90
35582;BMP180;21687;48.900;9.188;2024-02-16T07:37:29;98354.00;;;10.00
35582;BMP180;21687;48.900;9.188;2024-02-16T07:39:56;98356.00;;;10.00
35582;BMP180;21687;48.900;9.188;2024-02-16T07:42:23;98357.00;;;10.00
35582;BMP180;21687;48.900;9.188;2024-02-16T07:44:49;98348.00;;;9.90
35582;BMP180;21687;48.900;9.188;2024-02-16T07:47:16;98356.00;;;10.00
35582;BMP180;21687;48.900;9.188;2024-02-16T07:49:43;98355.00;;;9.90
35582;BMP180;21687;48.900;9.188;2024-02-16T07:52:10;98350.00;;;9.90
35582;BMP180;21687;48.900;9.188;2024-02-16T07:54:36;98356.00;;;9.90
35582;BMP180;21687;48.900;9.188;2024-02-16T07:57:03;98357.00;;;9.90
35582;BMP180;21687;48.900;9.188;2024-02-16T07:59:30;98359.00;;;9.90
35582;BMP180;21687;48.900;9.188;2024-02-16T08:01:57;98354.00;;;9.90
35582;BMP180;21687;48.900;9.188;2024-02-16T08:04:23;98358.00;;;10.00
35582;BMP180;21687;48.900;9.188;2024-02-16T08:06:49;98350.00;;;10.00
35582;BMP180;21687;48.900;9.188;2024-02-16T08:09:16;98356.00;;;10.00
35582;BMP180;21687;48.900;9.188;2024-02-16T08:11:42;98346.00;;;10.00
35582;BMP180;21687;48.900;9.188;2024-02-16T08:14:08;98355.00;;;10.20
35582;BMP180;21687;48.900;9.188;2024-02-16T08:16:35;98367.00;;;10.40
35582;BMP180;21687;48.900;9.188;2024-02-16T08:19:01;98364.00;;;10.70
35582;BMP180;21687;48.900;9.188;2024-02-16T08:21:27;98373.00;;;11.00
35582;BMP180;21687;48.900;9.188;2024-02-16T08:23:54;98377.00;;;11.20
35582;BMP180;21687;48.900;9.188;2024-02-16T08:26:20;98374.00;;;11.60
35582;BMP180;21687;48.900;9.188;2024-02-16T08:28:48;98379.00;;;11.90
35582;BMP180;21687;48.900;9.188;2024-02-16T08:31:18;98381.00;;;12.00
35582;BMP180;21687;48.900;9.188;2024-02-16T08:33:45;98380.00;;;12.20
35582;BMP180;21687;48.900;9.188;2024-02-16T08:36:13;98372.00;;;12.40
35582;BMP180;21687;48.900;9.188;2024-02-16T08:38:40;98379.00;;;12.50
35582;BMP180;21687;48.900;9.188;2024-02-16T08:41:06;98371.00;;;12.70
35582;BMP180;21687;48.900;9.188;2024-02-16T08:43:32;98380.00;;;12.70
35582;BMP180;21687;48.900;9.188;2024-02-16T08:45:59;98375.00;;;12.80
35582;BMP180;21687;48.900;9.188;2024-02-16T08:48:25;98380.00;;;13.00
35582;BMP180;21687;48.900;9.188;2024-02-16T08:50:51;98375.00;;;13.10
35582;BMP180;21687;48.900;9.188;2024-02-16T08:53:18;98375.00;;;13.30
35582;BMP180;21687;48.900;9.188;2024-02-16T08:55:44;98370.00;;;13.40
35582;BMP180;21687;48.900;9.188;2024-02-16T08:58:11;98372.00;;;13.60
35582;BMP180;21687;48.900;9.188;2024-02-16T09:00:38;98380.00;;;13.70
35582;BMP180;21687;48.900;9.188;2024-02-16T09:03:05;98383.00;;;13.80
35582;BMP180;21687;48.900;9.188;2024-02-16T09:05:32;98383.00;;;13.80
35582;BMP180;21687;48.900;9.188;2024-02-16T09:07:59;98389.00;;;13.80
35582;BMP180;21687;48.900;9.188;2024-02-16T09:10:25;98389.00;;;13.80
35582;BMP180;21687;48.900;9.188;2024-02-16T09:12:52;98391.00;;;13.80
35582;BMP180;21687;48.900;9.188;2024-02-16T09:15:18;98386.00;;;13.80
35582;BMP180;21687;48.900;9.188;2024-02-16T09:17:44;98389.00;;;13.90
35582;BMP180;21687;48.900;9.188;2024-02-16T09:20:11;98393.00;;;14.00
35582;BMP180;21687;48.900;9.188;2024-02-16T09:22:40;98392.00;;;14.10
35582;BMP180;21687;48.900;9.188;2024-02-16T09:25:07;98390.00;;;14.30
35582;BMP180;21687;48.900;9.188;2024-02-16T09:27:33;98384.00;;;14.50
35582;BMP180;21687;48.900;9.188;2024-02-16T09:30:00;98397.00;;;14.70
35582;BMP180;21687;48.900;9.188;2024-02-16T09:32:26;98400.00;;;15.00
35582;BMP180;21687;48.900;9.188;2024-02-16T09:34:52;98391.00;;;15.00
35582;BMP180;21687;48.900;9.188;2024-02-16T09:37:20;98400.00;;;15.20
35582;BMP180;21687;48.900;9.188;2024-02-16T09:39:46;98403.00;;;15.50
35582;BMP180;21687;48.900;9.188;2024-02-16T09:42:12;98398.00;;;15.70
35582;BMP180;21687;48.900;9.188;2024-02-16T09:44:41;98410.00;;;15.70
35582;BMP180;21687;48.900;9.188;2024-02-16T09:47:08;98416.00;;;15.70
35582;BMP180;21687;48.900;9.188;2024-02-16T09:49:38;98420.00;;;15.90
35582;BMP180;21687;48.900;9.188;2024-02-16T09:52:05;98427.00;;;15.90
35582;BMP180;21687;48.900;9.188;2024-02-16T09:54:34;98437.00;;;16.10
35582;BMP180;21687;48.900;9.188;2024-02-16T09:57:01;98435.00;;;16.20
35582;BMP180;21687;48.900;9.188;2024-02-16T09:59:27;98440.00;;;16.10
35582;BMP180;21687;48.900;9.188;2024-02-16T10:02:04;98445.00;;;16.20
35582;BMP180;21687;48.900;9.188;2024-02-16T10:04:30;98444.00;;;16.30
35582;BMP180;21687;48.900;9.188;2024-02-16T10:06:57;98450.00;;;16.30
35582;BMP180;21687;48.900;9.188;2024-02-16T10:09:28;98451.00;;;16.30
35582;BMP180;21687;48.900;9.188;2024-02-16T10:12:06;98451.00;;;16.30
35582;BMP180;21687;48.900;9.188;2024-02-16T10:14:32;98450.00;;;16.40
35582;BMP180;21687;48.900;9.188;2024-02-16T10:17:06;98458.00;;;16.60
35582;BMP180;21687;48.900;9.188;2024-02-16T10:19:33;98453.00;;;16.80
35582;BMP180;21687;48.900;9.188;2024-02-16T10:22:10;98461.00;;;16.90
35582;BMP180;21687;48.900;9.188;2024-02-16T10:24:36;98456.00;;;17.10
35582;BMP180;21687;48.900;9.188;2024-02-16T10:27:14;98458.00;;;17.50
35582;BMP180;21687;48.900;9.188;2024-02-16T10:29:44;98458.00;;;17.60
35582;BMP180;21687;48.900;9.188;2024-02-16T10:32:12;98456.00;;;17.60
35582;BMP180;21687;48.900;9.188;2024-02-16T10:34:39;98462.00;;;17.80
35582;BMP180;21687;48.900;9.188;2024-02-16T10:37:06;98462.00;;;18.00
35582;BMP180;21687;48.900;9.188;2024-02-16T10:39:35;98469.00;;;18.20
35582;BMP180;21687;48.900;9.188;2024-02-16T10:42:05;98464.00;;;18.10
35582;BMP180;21687;48.900;9.188;2024-02-16T10:44:34;98472.00;;;18.20
35582;BMP180;21687;48.900;9.188;2024-02-16T10:47:01;98469.00;;;18.30
35582;BMP180;21687;48.900;9.188;2024-02-16T10:49:28;98478.00;;;18.20
35582;BMP180;21687;48.900;9.188;2024-02-16T10:51:56;98471.00;;;17.80
35582;BMP180;21687;48.900;9.188;2024-02-16T10:54:30;98479.00;;;17.70
35582;BMP180;21687;48.900;9.188;2024-02-16T10:57:09;98485.00;;;17.50
35582;BMP180;21687;48.900;9.188;2024-02-16T10:59:43;98489.00;;;17.40
35582;BMP180;21687;48.900;9.188;2024-02-16T11:02:11;98495.00;;;17.50
35582;BMP180;21687;48.900;9.188;2024-02-16T11:04:38;98495.00;;;17.50
35582;BMP180;21687;48.900;9.188;2024-02-16T11:07:15;98485.00;;;17.40
35582;BMP180;21687;48.900;9.188;2024-02-16T11:09:44;98486.00;;;17.40
35582;BMP180;21687;48.900;9.188;2024-02-16T11:12:13;98485.00;;;17.70
35582;BMP180;21687;48.900;9.188;2024-02-16T11:14:41;98485.00;;;17.70
35582;BMP180;21687;48.900;9.188;2024-02-16T11:19:36;98494.00;;;17.80
35582;BMP180;21687;48.900;9.188;2024-02-16T11:22:06;98492.00;;;17.50
35582;BMP180;21687;48.900;9.188;2024-02-16T11:24:38;98480.00;;;17.60
35582;BMP180;21687;48.900;9.188;2024-02-16T11:27:10;98480.00;;;17.80
35582;BMP180;21687;48.900;9.188;2024-02-16T11:29:38;98482.00;;;18.00
35582;BMP180;21687;48.900;9.188;2024-02-16T11:32:05;98484.00;;;18.00
35582;BMP180;21687;48.900;9.188;2024-02-16T11:34:33;98483.00;;;17.70
35582;BMP180;21687;48.900;9.188;2024-02-16T11:37:01;98482.00;;;17.60
35582;BMP180;21687;48.900;9.188;2024-02-16T11:39:28;98474.00;;;17.30
35582;BMP180;21687;48.900;9.188;2024-02-16T11:42:11;98480.00;;;17.40
35582;BMP180;21687;48.900;9.188;2024-02-16T11:44:38;98476.00;;;17.30
35582;BMP180;21687;48.900;9.188;2024-02-16T11:47:09;98478.00;;;17.00
35582;BMP180;21687;48.900;9.188;2024-02-16T11:49:41;98477.00;;;17.10
35582;BMP180;21687;48.900;9.188;2024-02-16T11:52:08;98477.00;;;16.90
35582;BMP180;21687;48.900;9.188;2024-02-16T11:54:35;98477.00;;;17.00
35582;BMP180;21687;48.900;9.188;2024-02-16T11:57:04;98479.00;;;17.10
35582;BMP180;21687;48.900;9.188;2024-02-16T11:59:31;98475.00;;;17.00
35582;BMP180;21687;48.900;9.188;2024-02-16T12:02:00;98487.00;;;17.00
35582;BMP180;21687;48.900;9.188;2024-02-16T12:04:28;98482.00;;;17.10
35582;BMP180;21687;48.900;9.188;2024-02-16T12:07:02;98483.00;;;17.20
35582;BMP180;21687;48.900;9.188;2024-02-16T12:09:29;98484.00;;;17.00
35582;BMP180;21687;48.900;9.188;2024-02-16T12:11:58;98479.00;;;17.10
35582;BMP180;21687;48.900;9.188;2024-02-16T12:14:24;98481.00;;;17.30
35582;BMP180;21687;48.900;9.188;2024-02-16T12:16:55;98490.00;;;17.30
35582;BMP180;21687;48.900;9.188;2024-02-16T12:19:22;98493.00;;;17.30
35582;BMP180;21687;48.900;9.188;2024-02-16T12:21:52;98478.00;;;17.10
35582;BMP180;21687;48.900;9.188;2024-02-16T12:24:19;98490.00;;;17.20
35582;BMP180;21687;48.900;9.188;2024-02-16T12:26:46;98486.00;;;17.10
35582;BMP180;21687;48.900;9.188;2024-02-16T12:29:12;98488.00;;;17.20
35582;BMP180;21687;48.900;9.188;2024-02-16T12:31:43;98488.00;;;17.10
35582;BMP180;21687;48.900;9.188;2024-02-16T12:34:10;98497.00;;;17.00
35582;BMP180;21687;48.900;9.188;2024-02-16T12:36:40;98491.00;;;17.10
35582;BMP180;21687;48.900;9.188;2024-02-16T12:39:10;98487.00;;;17.10
35582;BMP180;21687;48.900;9.188;2024-02-16T12:41:38;98485.00;;;17.00
35582;BMP180;21687;48.900;9.188;2024-02-16T12:44:07;98493.00;;;17.00
35582;BMP180;21687;48.900;9.188;2024-02-16T12:46:33;98496.00;;;17.00
35582;BMP180;21687;48.900;9.188;2024-02-16T12:49:00;98499.00;;;17.10
35582;BMP180;21687;48.900;9.188;2024-02-16T12:51:26;98490.00;;;17.10
35582;BMP180;21687;48.900;9.188;2024-02-16T12:53:53;98499.00;;;17.20
35582;BMP180;21687;48.900;9.188;2024-02-16T12:56:19;98493.00;;;17.20
35582;BMP180;21687;48.900;9.188;2024-02-16T12:58:47;98495.00;;;17.30
35582;BMP180;21687;48.900;9.188;2024-02-16T13:01:14;98496.00;;;17.30
35582;BMP180;21687;48.900;9.188;2024-02-16T13:03:44;98501.00;;;17.30
35582;BMP180;21687;48.900;9.188;2024-02-16T13:06:11;98506.00;;;17.40
35582;BMP180;21687;48.900;9.188;2024-02-16T13:08:37;98494.00;;;17.50
35582;BMP180;21687;48.900;9.188;2024-02-16T13:11:04;98498.00;;;17.40
35582;BMP180;21687;48.900;9.188;2024-02-16T13:13:31;98499.00;;;17.50
35582;BMP180;21687;48.900;9.188;2024-02-16T13:15:58;98502.00;;;17.50
35582;BMP180;21687;48.900;9.188;2024-02-16T13:18:25;98495.00;;;17.50
35582;BMP180;21687;48.900;9.188;2024-02-16T13:20:51;98497.00;;;17.50
35582;BMP180;21687;48.900;9.188;2024-02-16T13:23:18;98495.00;;;17.40
35582;BMP180;21687;48.900;9.188;2024-02-16T13:25:45;98504.00;;;17.50
35582;BMP180;21687;48.900;9.188;2024-02-16T13:28:11;98502.00;;;17.60
35582;BMP180;21687;48.900;9.188;2024-02-16T13:30:38;98496.00;;;17.70
35582;BMP180;21687;48.900;9.188;2024-02-16T13:33:05;98493.00;;;17.80
35582;BMP180;21687;48.900;9.188;2024-02-16T13:35:31;98498.00;;;17.70
35582;BMP180;21687;48.900;9.188;2024-02-16T13:37:57;98497.00;;;17.80
35582;BMP180;21687;48.900;9.188;2024-02-16T13:40:24;98502.00;;;17.70
35582;BMP180;21687;48.900;9.188;2024-02-16T13:42:50;98509.00;;;17.60
35582;BMP180;21687;48.900;9.188;2024-02-16T13:45:17;98507.00;;;17.50
35582;BMP180;21687;48.900;9.188;2024-02-16T13:47:43;98500.00;;;17.60
35582;BMP180;21687;48.900;9.188;2024-02-16T13:50:09;98507.00;;;17.50
35582;BMP180;21687;48.900;9.188;2024-02-16T13:52:36;98508.00;;;17.40
35582;BMP180;21687;48.900;9.188;2024-02-16T13:55:02;98516.00;;;17.30
35582;BMP180;21687;48.900;9.188;2024-02-16T13:57:29;98521.00;;;17.20
35582;BMP180;21687;48.900;9.188;2024-02-16T13:59:55;98516.00;;;17.20
35582;BMP180;21687;48.900;9.188;2024-02-16T14:02:21;98520.00;;;17.10
35582;BMP180;21687;48.900;9.188;2024-02-16T14:04:49;98519.00;;;17.00
35582;BMP180;21687;48.900;9.188;2024-02-16T14:07:15;98515.00;;;17.10
35582;BMP180;21687;48.900;9.188;2024-02-16T14:09:42;98526.00;;;17.00
35582;BMP180;21687;48.900;9.188;2024-02-16T14:12:08;98515.00;;;17.00
35582;BMP180;21687;48.900;9.188;2024-02-16T14:14:34;98523.00;;;17.00
35582;BMP180;21687;48.900;9.188;2024-02-16T14:17:01;98529.00;;;16.90
35582;BMP180;21687;48.900;9.188;2024-02-16T14:19:27;98536.00;;;16.90